Time;durP1;ratioP1;P1;durP2;ratioP2;P2;SDS_P1;SDS_P2;PMS_P1;PMS_P2;Temp;Humidity;BMP_temperature;BMP_pressure;BME280_temperature;BME280_humidity;BME280_pressure;Samples;Min_cycle;Max_cycle;Signal;HPM_P1;HPM_P2
2021/07/07 00:01:23;;;;;;;5.28;0.34;;;;;;;13.67;88.14;99152.38;1994530;79;20778;-73
2021/07/07 00:04:26;;;;;;;1.74;0.20;;;;;;;13.63;88.27;99150.69;1994651;81;20178;-74
2021/07/07 00:07:29;;;;;;;2.83;0.35;;;;;;;13.60;88.58;99142.94;1995370;81;20182;-73
2021/07/07 00:10:35;;;;;;;4.84;0.30;;;;;;;13.58;88.84;99147.31;1994251;81;20211;-74
2021/07/07 00:13:37;;;;;;;5.04;0.50;;;;;;;13.59;89.00;99160.34;1995296;81;20202;-74
2021/07/07 00:16:40;;;;;;;5.88;0.40;;;;;;;13.60;88.90;99158.59;1992337;78;21031;-74
2021/07/07 00:19:43;;;;;;;1.39;0.17;;;;;;;13.57;89.01;99169.09;1990408;81;20195;-73
2021/07/07 00:22:45;;;;;;;1.54;0.34;;;;;;;13.56;89.21;99169.97;1990245;81;20179;-73
2021/07/07 00:25:49;;;;;;;2.54;0.30;;;;;;;13.54;89.32;99158.72;1990607;81;20204;-73
2021/07/07 00:28:51;;;;;;;1.74;0.30;;;;;;;13.52;89.12;99142.25;1989879;81;20236;-74
2021/07/07 00:31:54;;;;;;;2.55;0.56;;;;;;;13.49;88.99;99150.13;1992833;78;20241;-73
2021/07/07 00:34:57;;;;;;;6.44;0.51;;;;;;;13.46;88.84;99155.38;1995498;81;20175;-74
2021/07/07 00:37:59;;;;;;;1.50;0.45;;;;;;;13.43;88.94;99155.44;1995996;81;20692;-74
2021/07/07 00:41:02;;;;;;;4.71;0.40;;;;;;;13.42;89.07;99135.47;1996294;81;20200;-73
2021/07/07 00:44:04;;;;;;;1.71;0.26;;;;;;;13.40;89.44;99150.31;1996325;81;20174;-73
2021/07/07 00:47:07;;;;;;;6.06;0.40;;;;;;;13.35;89.29;99154.75;1995512;78;21331;-73
2021/07/07 00:50:11;;;;;;;3.72;0.30;;;;;;;13.34;89.51;99151.28;1996752;81;20198;-73
2021/07/07 00:53:13;;;;;;;2.05;0.59;;;;;;;13.33;89.72;99152.19;1996797;81;20645;-74
2021/07/07 00:56:18;;;;;;;4.43;0.40;;;;;;;13.32;89.57;99154.81;1996358;81;20229;-74
2021/07/07 00:59:21;;;;;;;2.86;0.30;;;;;;;13.32;89.55;99160.03;1996750;81;20223;-74
2021/07/07 01:02:26;;;;;;;5.20;0.40;;;;;;;13.31;89.82;99159.19;1996222;79;25209;-74
2021/07/07 01:05:29;;;;;;;3.60;0.40;;;;;;;13.33;89.69;99174.78;1996667;81;20694;-74
2021/07/07 01:08:31;;;;;;;1.36;0.30;;;;;;;13.29;90.03;99180.06;1996332;81;20199;-74
2021/07/07 01:11:34;;;;;;;3.26;0.25;;;;;;;13.30;90.23;99160.06;1996580;81;20621;-74
2021/07/07 01:14:37;;;;;;;3.17;0.30;;;;;;;13.33;90.25;99164.38;1996710;81;20232;-74
2021/07/07 01:17:40;;;;;;;2.31;0.29;;;;;;;13.34;90.15;99161.72;1990611;78;20392;-74
2021/07/07 01:20:43;;;;;;;4.06;0.30;;;;;;;13.34;89.86;99158.25;1991423;81;20208;-73
2021/07/07 01:23:45;;;;;;;2.97;0.30;;;;;;;13.29;89.60;99169.66;1991793;81;20197;-74
2021/07/07 01:26:48;;;;;;;4.10;0.40;;;;;;;13.23;89.50;99180.16;1990692;81;20187;-74
2021/07/07 01:29:54;;;;;;;4.45;0.30;;;;;;;13.22;89.83;99174.97;1992288;81;20226;-74
2021/07/07 01:32:57;;;;;;;5.82;0.29;;;;;;;13.20;89.88;99172.41;1993307;79;21856;-74
2021/07/07 01:35:59;;;;;;;7.89;0.30;;;;;;;13.24;90.04;99165.38;1996341;81;20271;-74
2021/07/07 01:39:05;;;;;;;2.26;0.30;;;;;;;13.26;89.95;99163.59;1997025;81;20260;-74
2021/07/07 01:42:08;;;;;;;1.50;0.30;;;;;;;13.25;90.11;99165.34;1995434;81;20174;-74
2021/07/07 01:45:12;;;;;;;2.84;0.34;;;;;;;13.24;89.93;99165.38;1995438;81;20171;-74
2021/07/07 01:48:14;;;;;;;4.39;0.50;;;;;;;13.20;89.72;99164.59;1991177;79;21704;-74
2021/07/07 01:51:18;;;;;;;4.88;0.40;;;;;;;13.15;89.94;99163.78;1991980;81;20210;-74
2021/07/07 01:54:21;;;;;;;4.35;0.52;;;;;;;13.15;90.01;99174.22;1991568;81;20187;-74
2021/07/07 01:57:23;;;;;;;2.31;0.40;;;;;;;13.15;90.13;99179.44;1990806;81;20616;-75
2021/07/07 02:00:30;;;;;;;4.04;0.39;;;;;;;13.17;90.01;99182.88;1991430;78;20193;-74
2021/07/07 02:03:33;;;;;;;2.05;0.36;;;;;;;13.19;90.22;99180.25;1997067;81;20220;-74
2021/07/07 02:06:35;;;;;;;0.38;0.38;;;;;;;13.18;90.55;99178.53;1997807;81;20170;-74
2021/07/07 02:09:38;;;;;;;1.35;0.20;;;;;;;13.16;90.71;99178.53;1999280;81;20162;-74
2021/07/07 02:12:44;;;;;;;3.58;0.54;;;;;;;13.15;90.64;99175.97;1998763;81;20949;-74
2021/07/07 02:15:46;;;;;;;5.25;0.63;;;;;;;13.14;90.83;99167.28;1996796;78;20602;-74
2021/07/07 02:18:49;;;;;;;2.51;0.59;;;;;;;13.16;nan;99181.16;1993461;81;20195;-73
2021/07/07 02:21:52;;;;;;;4.63;0.66;;;;;;;13.17;90.52;99174.19;1996570;81;20732;-73
2021/07/07 02:24:54;;;;;;;6.84;0.54;;;;;;;13.16;90.69;99173.31;1993359;81;20183;-73
2021/07/07 02:27:58;;;;;;;3.60;0.44;;;;;;;13.14;90.69;99180.31;1992973;81;20227;-74
2021/07/07 02:31:00;;;;;;;5.85;0.70;;;;;;;13.12;90.74;99168.22;1994420;78;21095;-73
2021/07/07 02:34:03;;;;;;;4.28;0.40;;;;;;;13.11;90.88;99175.16;1998848;81;20239;-74
2021/07/07 02:37:06;;;;;;;2.58;0.40;;;;;;;13.11;90.74;99169.09;1999138;81;20900;-73
2021/07/07 02:40:10;;;;;;;2.92;0.50;;;;;;;13.11;90.70;99177.78;1998911;81;20182;-73
2021/07/07 02:43:12;;;;;;;5.20;0.47;;;;;;;13.12;90.64;99178.63;1998476;81;20218;-73
2021/07/07 02:46:15;;;;;;;4.06;0.40;;;;;;;13.10;nan;99183.84;1995334;78;23675;-74
2021/07/07 02:49:20;;;;;;;4.74;0.50;;;;;;;13.09;90.86;99176.06;1993352;81;20293;-74
2021/07/07 02:52:23;;;;;;;2.03;0.46;;;;;;;13.09;nan;99176.06;1992480;81;21021;-74
2021/07/07 02:55:26;;;;;;;6.34;0.50;;;;;;;13.07;90.75;99193.47;1995483;81;20206;-74
2021/07/07 02:58:28;;;;;;;3.91;0.66;;;;;;;13.03;90.70;99195.28;1992944;81;20228;-73
2021/07/07 03:01:31;;;;;;;5.40;0.56;;;;;;;13.00;90.77;99190.13;1994645;78;22730;-73
2021/07/07 03:04:35;;;;;;;3.25;0.50;;;;;;;13.00;90.85;99184.91;1997271;81;20590;-73
2021/07/07 03:07:38;;;;;;;0.76;0.47;;;;;;;12.99;91.01;99188.41;1997522;81;20653;-73
2021/07/07 03:10:42;;;;;;;3.09;0.40;;;;;;;12.94;90.99;99188.50;1996910;81;21346;-74
2021/07/07 03:13:44;;;;;;;1.13;0.40;;;;;;;12.93;91.02;99186.78;1997189;81;20186;-74
2021/07/07 03:16:47;;;;;;;3.75;0.50;;;;;;;12.91;90.96;99183.31;1993022;78;21415;-76
2021/07/07 03:19:50;;;;;;;3.80;0.50;;;;;;;12.91;91.07;99188.53;1992094;81;20182;-74
2021/07/07 03:22:52;;;;;;;3.46;0.49;;;;;;;12.89;90.89;99185.09;1991886;81;21121;-74
2021/07/07 03:25:55;;;;;;;2.22;0.40;;;;;;;12.88;90.98;99187.72;1991974;81;20241;-73
2021/07/07 03:28:58;;;;;;;4.18;0.38;;;;;;;12.85;91.00;99183.44;1992283;81;20260;-73
2021/07/07 03:32:01;;;;;;;3.53;0.47;;;;;;;12.82;90.90;99191.31;1994267;78;20175;-74
2021/07/07 03:35:04;;;;;;;2.89;0.40;;;;;;;12.79;90.63;99188.75;1996943;81;20220;-73
2021/07/07 03:38:07;;;;;;;3.10;0.40;;;;;;;12.73;90.55;99193.19;1996901;81;20218;-73
2021/07/07 03:41:10;;;;;;;3.59;0.43;;;;;;;12.67;90.59;99195.00;1997497;81;20331;-74
2021/07/07 03:44:12;;;;;;;0.77;0.40;;;;;;;12.62;90.74;99201.19;1997011;81;20170;-75
2021/07/07 03:47:15;;;;;;;2.24;0.40;;;;;;;12.59;91.14;99207.31;1992365;78;20224;-73
2021/07/07 03:50:19;;;;;;;3.95;0.35;;;;;;;12.62;91.44;99204.66;1991963;81;20736;-75
2021/07/07 03:53:22;;;;;;;3.31;0.43;;;;;;;12.62;91.73;99204.66;1992519;81;20164;-73
2021/07/07 03:56:25;;;;;;;2.22;0.60;;;;;;;12.62;91.78;99212.47;1991552;81;20582;-74
2021/07/07 03:59:27;;;;;;;2.58;0.40;;;;;;;12.65;91.59;99214.16;1992265;81;20758;-74
2021/07/07 04:02:30;;;;;;;3.49;0.56;;;;;;;12.64;91.50;99215.03;1994437;78;20231;-73
2021/07/07 04:05:33;;;;;;;2.03;0.40;;;;;;;12.61;91.33;99218.56;1997474;81;20190;-74
2021/07/07 04:08:38;;;;;;;2.88;0.50;;;;;;;12.61;91.52;99221.16;1996716;81;20186;-74
2021/07/07 04:11:41;;;;;;;0.94;0.50;;;;;;;12.61;91.42;99223.78;1996316;81;20162;-74
2021/07/07 04:14:44;;;;;;;2.72;0.49;;;;;;;12.63;91.50;99228.94;1996147;81;20182;-75
2021/07/07 04:17:47;;;;;;;2.72;0.40;;;;;;;12.61;91.52;99228.97;1991435;78;20210;-74
2021/07/07 04:20:51;;;;;;;2.97;0.43;;;;;;;12.63;91.30;99231.56;1991766;81;20211;-74
2021/07/07 04:23:53;;;;;;;0.94;0.50;;;;;;;12.60;91.28;99229.88;1990731;81;20662;-74
2021/07/07 04:26:56;;;;;;;4.06;0.52;;;;;;;12.62;91.49;99233.31;1991630;81;20199;-74
2021/07/07 04:29:58;;;;;;;2.74;0.50;;;;;;;12.61;91.51;99233.31;1991471;81;20641;-74
2021/07/07 04:33:02;;;;;;;3.34;0.50;;;;;;;12.64;91.80;99248.91;1990877;79;20978;-73
2021/07/07 04:36:05;;;;;;;1.36;0.47;;;;;;;12.64;91.61;99251.50;1991304;81;20305;-73
2021/07/07 04:39:08;;;;;;;0.93;0.40;;;;;;;12.61;91.82;99256.78;1990975;81;20288;-73
2021/07/07 04:42:11;;;;;;;2.66;0.40;;;;;;;12.63;91.76;99253.25;1991389;81;20190;-74
2021/07/07 04:45:14;;;;;;;2.97;0.43;;;;;;;12.66;91.76;99252.34;1991667;81;20763;-73
2021/07/07 04:48:16;;;;;;;6.46;0.64;;;;;;;12.67;91.80;99262.75;1990582;79;21859;-73
2021/07/07 04:51:19;;;;;;;2.63;0.40;;;;;;;12.70;91.68;99272.25;1991514;81;20196;-73
2021/07/07 04:54:22;;;;;;;4.44;0.40;;;;;;;12.70;91.57;99278.31;1995028;81;20751;-73
2021/07/07 04:57:24;;;;;;;3.14;0.49;;;;;;;12.77;91.45;99280.84;1991634;81;20187;-73
2021/07/07 05:00:27;;;;;;;1.31;0.34;;;;;;;12.83;91.43;99284.22;1990930;81;24194;-74
2021/07/07 05:03:30;;;;;;;2.78;0.50;;;;;;;12.97;91.37;99289.22;1996461;81;20188;-73
2021/07/07 05:06:32;;;;;;;3.75;0.40;;;;;;;13.15;91.07;99286.31;1996754;81;20300;-74
2021/07/07 05:09:36;;;;;;;1.98;0.41;;;;;;;13.32;90.38;99283.47;1996517;81;20692;-74
2021/07/07 05:12:39;;;;;;;1.23;0.30;;;;;;;13.54;89.76;99283.94;1996242;81;20195;-74
2021/07/07 05:15:42;;;;;;;3.21;0.46;;;;;;;13.73;89.14;99284.44;1996002;81;20253;-73
2021/07/07 05:18:47;;;;;;;0.46;0.30;;;;;;;13.97;88.38;99291.78;1996186;81;20959;-74
2021/07/07 05:21:49;;;;;;;4.59;0.40;;;;;;;14.25;87.64;99294.72;1996515;81;20910;-75
2021/07/07 05:24:52;;;;;;;4.51;0.41;;;;;;;14.57;86.28;99293.22;1996924;81;20253;-74
2021/07/07 05:27:55;;;;;;;4.31;1.45;;;;;;;14.95;84.59;99289.72;1996949;81;21141;-72
2021/07/07 05:31:04;;;;;;;2.25;1.13;;;;;;;15.29;82.71;99292.38;1994109;79;21662;-73
2021/07/07 05:34:09;;;;;;;2.25;0.30;;;;;;;15.61;80.86;99283.69;1991871;81;20736;-73
2021/07/07 05:37:11;;;;;;;2.60;0.40;;;;;;;16.02;78.96;99286.06;1989791;81;20207;-73
2021/07/07 05:40:15;;;;;;;1.65;0.30;;;;;;;16.52;77.07;99293.38;1989886;81;20322;-73
2021/07/07 05:43:18;;;;;;;4.56;0.36;;;;;;;16.93;74.39;99292.13;1990192;81;20201;-72
2021/07/07 05:46:21;;;;;;;1.24;0.50;;;;;;;16.65;75.09;99288.59;1990822;79;20928;-73
2021/07/07 05:49:24;;;;;;;2.14;0.40;;;;;;;16.88;75.42;99301.91;1994320;81;20186;-72
2021/07/07 05:52:27;;;;;;;1.27;0.34;;;;;;;17.40;74.07;99297.56;1995258;81;20185;-73
2021/07/07 05:55:30;;;;;;;0.79;0.39;;;;;;;17.78;73.17;99305.03;1995324;81;20295;-72
2021/07/07 05:58:34;;;;;;;1.73;0.40;;;;;;;18.09;71.71;99298.66;1994606;81;20202;-73
2021/07/07 06:01:36;;;;;;;1.88;0.30;;;;;;;18.42;70.39;99297.41;1991799;78;21109;-72
2021/07/07 06:04:41;;;;;;;2.08;0.40;;;;;;;18.60;68.62;99303.75;1990450;81;20187;-70
2021/07/07 06:07:44;;;;;;;3.22;0.40;;;;;;;18.96;67.55;99293.59;1990349;81;20196;-72
2021/07/07 06:10:47;;;;;;;1.44;0.30;;;;;;;19.23;65.64;99301.31;1990108;81;20186;-73
2021/07/07 06:13:50;;;;;;;1.85;0.45;;;;;;;19.59;64.49;99304.22;1990469;81;20214;-73
2021/07/07 06:16:53;;;;;;;2.34;0.40;;;;;;;19.91;63.31;99305.44;1989462;78;20510;-72
2021/07/07 06:19:56;;;;;;;6.30;0.63;;;;;;;20.23;62.67;99312.78;1989627;81;20672;-74
2021/07/07 06:22:59;;;;;;;2.99;0.30;;;;;;;20.52;61.59;99306.22;1989884;81;20224;-75
2021/07/07 06:26:02;;;;;;;2.08;0.40;;;;;;;20.90;60.69;99316.75;1990841;81;20199;-75
2021/07/07 06:29:05;;;;;;;1.41;0.20;;;;;;;21.21;60.13;99325.84;1991049;81;20225;-75
2021/07/07 06:32:07;;;;;;;1.00;0.40;;;;;;;21.42;58.60;99320.38;1989254;78;20936;-75
2021/07/07 06:35:10;;;;;;;3.81;0.40;;;;;;;21.58;58.23;99315.19;1990056;81;20229;-76
2021/07/07 06:38:13;;;;;;;3.71;0.50;;;;;;;21.84;57.88;99320.91;1989498;81;20185;-75
2021/07/07 06:41:15;;;;;;;2.45;0.60;;;;;;;21.97;57.55;99314.06;1990080;81;20665;-75
2021/07/07 06:44:18;;;;;;;3.20;0.36;;;;;;;22.00;56.42;99314.75;1989734;81;20191;-75
2021/07/07 06:47:21;;;;;;;4.96;0.31;;;;;;;22.11;56.64;99318.66;1992951;79;21612;-75
2021/07/07 06:50:24;;;;;;;1.59;0.34;;;;;;;22.09;56.07;99316.09;1993301;81;20174;-75
2021/07/07 06:53:27;;;;;;;3.89;0.40;;;;;;;22.28;56.24;99316.84;1994059;81;20896;-75
2021/07/07 06:56:29;;;;;;;2.97;0.40;;;;;;;22.37;55.83;99322.56;1993365;81;20237;-75
2021/07/07 06:59:32;;;;;;;2.89;0.40;;;;;;;22.51;55.64;99322.66;1994917;81;20278;-74
2021/07/07 07:02:35;;;;;;;2.39;0.40;;;;;;;22.65;55.90;99320.13;1994586;78;29313;-74
2021/07/07 07:05:37;;;;;;;1.91;0.40;;;;;;;22.80;55.46;99326.34;1995361;81;20307;-74
2021/07/07 07:08:40;;;;;;;4.49;0.49;;;;;;;22.98;53.46;99327.16;1995731;81;20186;-75
2021/07/07 07:11:43;;;;;;;2.96;0.60;;;;;;;23.12;52.91;99325.44;1995666;81;21447;-74
2021/07/07 07:14:49;;;;;;;2.08;0.50;;;;;;;23.34;51.86;99317.13;1995560;81;20253;-73
2021/07/07 07:17:52;;;;;;;2.33;0.50;;;;;;;23.40;52.54;99316.78;1990382;78;21079;-78
2021/07/07 07:20:54;;;;;;;6.07;0.61;;;;;;;23.53;52.14;99316.91;1991390;81;20202;-75
2021/07/07 07:23:57;;;;;;;2.91;0.43;;;;;;;23.54;51.08;99320.41;1994019;81;20710;-75
2021/07/07 07:27:00;;;;;;;2.92;0.40;;;;;;;23.59;50.19;99321.03;1991517;81;20192;-74
2021/07/07 07:30:06;;;;;;;3.22;0.50;;;;;;;23.80;51.63;99317.94;1993310;81;20171;-74
2021/07/07 07:33:18;;;;;;;2.54;0.60;;;;;;;23.76;51.79;99323.53;1990730;81;21125;-75
2021/07/07 07:36:21;;;;;;;1.61;0.34;;;;;;;23.76;52.02;99313.78;1991102;81;20232;-74
2021/07/07 07:39:26;;;;;;;2.31;0.43;;;;;;;23.65;51.71;99305.59;1991792;81;20233;-73
2021/07/07 07:42:28;;;;;;;3.25;0.50;;;;;;;23.70;52.62;99308.84;1990972;81;20193;-74
2021/07/07 07:45:32;;;;;;;3.24;0.50;;;;;;;23.74;52.49;99306.88;1990302;78;23067;-74
2021/07/07 07:48:35;;;;;;;4.35;0.66;;;;;;;23.86;51.84;99310.56;1990564;81;20183;-73
2021/07/07 07:51:38;;;;;;;4.38;0.63;;;;;;;23.96;51.05;99311.72;1990584;81;20214;-73
2021/07/07 07:54:40;;;;;;;5.03;0.55;;;;;;;24.09;51.10;99315.34;1990696;81;20195;-73
2021/07/07 07:57:43;;;;;;;2.91;0.45;;;;;;;24.20;50.55;99319.97;1991066;81;20187;-73
2021/07/07 08:00:48;;;;;;;3.69;0.50;;;;;;;24.20;49.99;99320.84;1991747;78;23045;-75
2021/07/07 08:03:51;;;;;;;4.72;0.40;;;;;;;24.10;49.87;99319.72;1995576;81;20227;-75
2021/07/07 08:06:54;;;;;;;4.07;0.51;;;;;;;24.31;50.96;99321.06;1995898;81;20204;-74
2021/07/07 08:09:57;;;;;;;5.76;0.60;;;;;;;24.25;48.87;99321.44;1998907;81;20170;-73
2021/07/07 08:12:59;;;;;;;2.81;0.51;;;;;;;24.28;48.73;99312.41;1995148;81;20210;-75
2021/07/07 08:16:02;;;;;;;5.47;0.57;;;;;;;24.32;47.64;99316.63;1992916;78;21467;-77
2021/07/07 08:19:05;;;;;;;2.90;0.54;;;;;;;24.31;46.75;99325.53;1991826;81;20186;-76
2021/07/07 08:22:08;;;;;;;10.71;3.33;;;;;;;24.39;48.07;99326.75;1990893;81;20643;-75
2021/07/07 08:25:11;;;;;;;2.38;0.52;;;;;;;24.59;49.33;99335.25;1993580;81;20241;-73
2021/07/07 08:28:14;;;;;;;2.96;0.70;;;;;;;24.63;48.17;99337.66;1990809;81;20215;-73
2021/07/07 08:31:17;;;;;;;4.85;0.80;;;;;;;24.59;47.32;99341.44;1992299;78;21772;-73
2021/07/07 08:34:19;;;;;;;2.35;0.76;;;;;;;24.78;49.29;99341.16;1995563;81;20352;-73
2021/07/07 08:37:22;;;;;;;2.86;0.54;;;;;;;25.10;49.91;99335.59;1996426;81;20182;-73
2021/07/07 08:40:25;;;;;;;2.75;0.50;;;;;;;25.28;49.37;99339.69;1996219;81;20218;-74
2021/07/07 08:43:28;;;;;;;4.97;0.60;;;;;;;25.18;47.02;99341.25;1996470;81;20182;-73
2021/07/07 08:46:31;;;;;;;8.80;1.00;;;;;;;24.74;45.37;99344.06;1995055;79;26733;-74
2021/07/07 08:49:34;;;;;;;7.13;0.60;;;;;;;24.40;45.42;99339.06;1995606;81;20178;-73
2021/07/07 08:52:38;;;;;;;3.00;0.56;;;;;;;23.69;46.99;99349.53;1995963;81;20186;-73
2021/07/07 08:55:42;;;;;;;3.50;0.69;;;;;;;23.16;47.76;99345.53;2088213;70;20223;-74
2021/07/07 08:58:45;;;;;;;5.96;0.70;;;;;;;22.95;47.98;99352.00;1984168;81;20175;-73
2021/07/07 09:02:11;;;;;;;3.11;0.65;;;;;;;23.33;48.83;99355.16;1983657;79;20807;-73
2021/07/07 09:05:14;;;;;;;6.63;0.91;;;;;;;24.13;50.47;99351.34;1984857;81;20658;-74
2021/07/07 09:08:41;;;;;;;4.44;0.55;;;;;;;24.73;48.65;99355.66;1986039;81;20191;-73
2021/07/07 09:11:44;;;;;;;5.43;0.76;;;;;;;24.89;47.42;99364.34;1984957;81;20203;-74
2021/07/07 09:14:49;;;;;;;7.24;0.86;;;;;;;24.94;46.60;99365.75;1985360;81;20199;-74
2021/07/07 09:17:53;;;;;;;3.76;0.65;;;;;;;25.13;48.81;99362.81;1979444;79;21419;-74
2021/07/07 09:20:55;;;;;;;3.21;0.95;;;;;;;25.43;46.23;99365.28;1979316;82;21209;-73
2021/07/07 09:24:00;;;;;;;3.39;0.70;;;;;;;25.41;46.10;99366.34;1980554;81;20882;-73
2021/07/07 09:27:05;;;;;;;6.55;0.76;;;;;;;25.79;46.14;99367.31;1980355;81;20308;-73
2021/07/07 09:30:11;;;;;;;5.06;0.63;;;;;;;26.20;45.44;99371.63;1979310;81;20998;-73
2021/07/07 09:33:14;;;;;;;5.20;0.70;;;;;;;26.35;43.34;99369.75;1984979;79;27939;-73
2021/07/07 09:36:24;;;;;;;3.84;0.70;;;;;;;26.45;43.93;99369.00;1984617;81;20198;-73
2021/07/07 09:39:31;;;;;;;16.55;1.10;;;;;;;26.38;41.16;99373.03;1985614;81;20180;-73
2021/07/07 09:42:35;;;;;;;4.56;0.69;;;;;;;25.67;40.71;99370.75;1984314;81;20689;-73
2021/07/07 09:45:46;;;;;;;7.68;0.86;;;;;;;25.38;43.21;99369.19;1983168;79;23543;-73
2021/07/07 09:48:51;;;;;;;3.06;0.74;;;;;;;25.52;45.77;99380.63;1980686;82;20184;-75
2021/07/07 09:51:53;;;;;;;2.80;0.70;;;;;;;26.04;44.89;99371.00;1980092;82;20245;-74
2021/07/07 09:54:58;;;;;;;6.19;0.73;;;;;;;26.27;44.02;99366.75;1980029;82;20238;-74
2021/07/07 09:58:01;;;;;;;8.20;0.80;;;;;;;26.53;44.00;99370.28;1979817;82;20237;-73
2021/07/07 10:01:04;;;;;;;3.51;0.85;;;;;;;26.38;44.47;99364.22;1980759;78;22260;-73
2021/07/07 10:04:11;;;;;;;4.96;0.70;;;;;;;26.50;43.07;99364.22;1985455;81;20198;-73
2021/07/07 10:07:14;;;;;;;2.03;0.57;;;;;;;26.38;43.20;99361.53;1984728;81;20355;-72
2021/07/07 10:10:18;;;;;;;2.61;0.60;;;;;;;25.98;43.70;99360.75;1985125;81;20176;-72
2021/07/07 10:13:21;;;;;;;3.28;0.70;;;;;;;25.99;43.58;99360.66;1984368;81;20180;-73
2021/07/07 10:16:25;;;;;;;5.46;0.70;;;;;;;26.25;43.10;99368.66;1984418;79;21826;-73
2021/07/07 10:19:28;;;;;;;4.18;0.91;;;;;;;26.34;42.48;99360.88;1985004;81;20179;-73
2021/07/07 10:22:31;;;;;;;5.21;0.77;;;;;;;26.11;42.98;99357.16;1985321;81;20285;-73
2021/07/07 10:25:36;;;;;;;4.79;0.60;;;;;;;25.68;43.16;99353.91;1985468;81;20176;-72
2021/07/07 10:28:39;;;;;;;4.40;1.00;;;;;;;25.96;44.27;99349.38;1981019;81;20237;-72
2021/07/07 10:31:51;;;;;;;3.92;0.70;;;;;;;26.29;42.70;99351.53;1982790;79;21313;-71
2021/07/07 10:34:54;;;;;;;6.21;0.89;;;;;;;26.44;42.93;99354.00;1982200;82;20194;-72
2021/07/07 10:37:56;;;;;;;4.35;0.70;;;;;;;26.10;42.89;99354.59;1981252;81;20258;-72
2021/07/07 10:40:59;;;;;;;5.01;0.73;;;;;;;25.49;43.59;99361.34;1980853;81;20200;-72
2021/07/07 10:44:02;;;;;;;3.40;0.76;;;;;;;25.14;44.64;99353.06;1980755;81;20201;-72
2021/07/07 10:47:11;;;;;;;5.20;0.60;;;;;;;25.58;45.54;99360.75;1983523;81;29515;-72
2021/07/07 10:50:33;;;;;;;5.82;0.60;;;;;;;26.16;45.12;99357.69;1985449;81;20180;-71
2021/07/07 10:53:36;;;;;;;4.38;0.50;;;;;;;26.64;42.92;99359.72;1985895;81;21142;-71
2021/07/07 10:56:45;;;;;;;2.45;0.60;;;;;;;26.84;41.15;99348.50;1985079;81;20981;-70
2021/07/07 10:59:48;;;;;;;4.13;0.59;;;;;;;26.87;41.79;99356.25;1985197;81;21088;-74
2021/07/07 11:03:17;;;;;;;2.80;0.65;;;;;;;26.90;41.37;99355.19;1980367;79;23366;-77
2021/07/07 11:06:22;;;;;;;2.45;0.70;;;;;;;26.67;41.64;99349.69;1980479;81;20721;-72
2021/07/07 11:09:26;;;;;;;2.92;0.69;;;;;;;26.78;41.58;99348.94;1980513;82;20694;-75
2021/07/07 11:12:35;;;;;;;5.89;1.09;;;;;;;27.23;40.74;99351.91;1979761;81;20237;-73
2021/07/07 11:15:38;;;;;;;4.30;0.56;;;;;;;27.37;38.40;99355.25;1980091;79;21009;-72
2021/07/07 11:18:42;;;;;;;8.89;0.76;;;;;;;27.26;38.40;99357.00;1985135;81;20283;-73
2021/07/07 11:21:45;;;;;;;2.64;0.66;;;;;;;26.96;39.21;99352.94;1985259;81;20171;-73
2021/07/07 11:24:54;;;;;;;2.21;0.71;;;;;;;26.61;40.04;99355.47;1985624;81;20209;-72
2021/07/07 11:27:58;;;;;;;3.21;0.70;;;;;;;26.12;40.84;99364.19;1985343;81;20241;-72
2021/07/07 11:31:01;;;;;;;3.30;0.60;;;;;;;25.73;41.75;99359.78;1983169;79;23215;-73
2021/07/07 11:34:04;;;;;;;3.97;0.70;;;;;;;25.30;41.22;99362.56;1982028;81;20262;-72
2021/07/07 11:37:06;;;;;;;3.22;0.59;;;;;;;25.35;43.67;99358.78;1981477;81;20282;-73
2021/07/07 11:40:11;;;;;;;3.09;0.60;;;;;;;25.19;43.87;99367.75;1980371;82;20752;-73
2021/07/07 11:43:19;;;;;;;2.22;0.60;;;;;;;24.73;42.59;99364.47;1980199;81;20240;-72
2021/07/07 11:46:23;;;;;;;;;;;;;;;24.94;44.08;99362.25;1982816;78;20318;-72
2021/07/07 11:49:26;;;;;;;5.22;0.61;;;;;;;24.81;42.22;99361.34;1986449;81;20048;-71
2021/07/07 11:52:30;;;;;;;1.81;0.57;;;;;;;24.63;42.99;99361.56;1986274;81;20217;-71
2021/07/07 11:55:54;;;;;;;4.14;0.96;;;;;;;24.28;43.86;99349.56;1987816;81;20202;-70
2021/07/07 11:58:58;;;;;;;5.53;0.77;;;;;;;24.39;43.25;99353.28;1986925;81;20636;-72
2021/07/07 12:02:01;;;;;;;2.20;0.47;;;;;;;24.35;43.92;99356.22;1981913;79;25182;-72
2021/07/07 12:05:05;;;;;;;2.92;0.50;;;;;;;24.22;45.17;99353.44;1981091;81;20259;-72
2021/07/07 12:08:17;;;;;;;2.03;0.60;;;;;;;24.25;45.55;99350.63;1981110;81;20851;-72
2021/07/07 12:11:20;;;;;;;5.91;0.59;;;;;;;24.67;45.66;99356.91;1981699;81;20234;-72
2021/07/07 12:14:25;;;;;;;4.15;0.60;;;;;;;24.68;43.76;99351.47;1981567;81;20680;-72
2021/07/07 12:17:28;;;;;;;6.00;0.59;;;;;;;24.55;43.88;99352.34;1984367;79;24530;-71
2021/07/07 12:20:34;;;;;;;2.66;0.57;;;;;;;24.35;46.13;99353.56;1986415;81;20180;-72
2021/07/07 12:23:45;;;;;;;4.80;0.85;;;;;;;24.75;45.10;99357.25;1985837;81;20176;-71
2021/07/07 12:26:53;;;;;;;3.46;0.60;;;;;;;25.26;43.75;99358.41;1986983;81;20337;-73
2021/07/07 12:29:56;;;;;;;3.91;0.60;;;;;;;25.43;44.11;99365.28;1985934;81;20221;-72
2021/07/07 12:32:59;;;;;;;3.74;0.98;;;;;;;25.21;41.94;99362.31;1980742;79;22159;-69
2021/07/07 12:36:03;;;;;;;5.22;0.65;;;;;;;24.94;42.91;99368.41;1981450;81;20210;-71
2021/07/07 12:39:16;;;;;;;1.73;0.60;;;;;;;24.66;43.70;99361.34;1978739;81;20305;-74
2021/07/07 12:42:35;;;;;;;3.03;0.60;;;;;;;24.78;43.19;99365.06;1980280;81;20185;-72
2021/07/07 12:45:38;;;;;;;2.41;0.60;;;;;;;25.53;45.04;99354.91;1980982;81;20289;-72
2021/07/07 12:48:55;;;;;;;2.19;0.50;;;;;;;26.18;43.67;99355.75;1980333;81;20184;-72
2021/07/07 12:52:21;;;;;;;3.50;0.60;;;;;;;26.27;41.08;99359.63;1979850;81;20223;-73
2021/07/07 12:55:25;;;;;;;2.90;0.50;;;;;;;26.56;41.51;99343.41;1981517;81;20188;-74
2021/07/07 12:58:28;;;;;;;1.41;0.45;;;;;;;26.77;42.12;99355.22;1979417;82;20202;-72
2021/07/07 13:01:30;;;;;;;1.92;0.50;;;;;;;26.71;40.07;99356.50;1981798;78;22381;-72
2021/07/07 13:04:34;;;;;;;1.70;0.56;;;;;;;26.66;41.73;99355.13;1985234;81;20199;-72
2021/07/07 13:07:37;;;;;;;3.17;0.50;;;;;;;26.49;41.25;99364.31;1985608;81;21069;-74
2021/07/07 13:10:43;;;;;;;2.28;0.49;;;;;;;26.33;41.12;99358.31;1985334;81;20172;-73
2021/07/07 13:13:47;;;;;;;1.94;0.41;;;;;;;26.29;40.64;99359.50;1985823;81;20277;-73
2021/07/07 13:16:51;;;;;;;2.16;0.59;;;;;;;26.70;42.09;99362.78;1981245;79;24932;-73
2021/07/07 13:20:01;;;;;;;2.29;0.56;;;;;;;26.70;40.50;99354.81;1980312;81;20188;-74
2021/07/07 13:23:03;;;;;;;2.10;0.54;;;;;;;26.76;41.19;99342.88;1980262;81;20180;-73
2021/07/07 13:26:39;;;;;;;3.00;0.50;;;;;;;26.85;40.55;99358.19;1980429;82;20243;-73
2021/07/07 13:29:51;;;;;;;2.96;0.45;;;;;;;26.57;40.54;99359.31;1980894;82;20641;-76
2021/07/07 13:32:53;;;;;;;2.17;0.50;;;;;;;26.23;40.71;99355.47;1984671;78;22165;-76
2021/07/07 13:35:56;;;;;;;3.83;0.60;;;;;;;26.19;41.16;99344.16;1985342;81;20233;-76
2021/07/07 13:39:08;;;;;;;4.00;0.55;;;;;;;25.85;41.15;99348.31;1985255;81;20258;-76
2021/07/07 13:42:12;;;;;;;4.65;0.60;;;;;;;25.40;42.32;99346.88;1984835;81;20199;-78
2021/07/07 13:45:16;;;;;;;3.70;0.60;;;;;;;25.13;42.27;99346.84;1984236;81;20280;-75
2021/07/07 13:48:21;;;;;;;2.67;0.51;;;;;;;24.86;43.67;99349.47;1980266;79;21059;-75
2021/07/07 13:51:24;;;;;;;2.67;0.60;;;;;;;24.62;44.74;99351.03;1981341;82;20226;-77
2021/07/07 13:54:27;;;;;;;5.54;1.50;;;;;;;24.28;46.17;99349.56;1981696;81;20208;-76
2021/07/07 13:57:30;;;;;;;4.00;0.55;;;;;;;23.97;45.94;99356.72;1980843;82;20212;-76
2021/07/07 14:00:33;;;;;;;2.40;0.50;;;;;;;23.83;48.36;99350.53;1981331;81;22286;-76
2021/07/07 14:03:35;;;;;;;4.40;0.60;;;;;;;23.63;49.69;99359.66;1987277;81;20287;-76
2021/07/07 14:06:38;;;;;;;3.49;0.60;;;;;;;23.44;50.98;99363.34;1986062;81;20941;-76
2021/07/07 14:09:40;;;;;;;4.20;0.88;;;;;;;23.24;51.45;99354.84;1987652;81;20224;-76
2021/07/07 14:12:43;;;;;;;5.66;1.83;;;;;;;23.09;51.17;99353.91;1987653;81;20168;-69
2021/07/07 14:15:46;;;;;;;2.72;0.70;;;;;;;22.99;53.80;99353.56;1985092;79;20640;-73
2021/07/07 14:18:49;;;;;;;3.15;0.60;;;;;;;22.96;56.96;99360.81;1981837;81;20202;-75
2021/07/07 14:21:52;;;;;;;3.04;0.69;;;;;;;23.19;58.59;99360.41;1981668;81;20208;-73
2021/07/07 14:24:54;;;;;;;3.42;0.60;;;;;;;23.53;57.73;99364.63;1982005;81;20189;-73
2021/07/07 14:27:57;;;;;;;2.15;0.63;;;;;;;23.72;55.94;99362.66;1980987;81;20206;-73